Time;durP1;ratioP1;P1;durP2;ratioP2;P2;SDS_P1;SDS_P2;PMS_P1;PMS_P2;Temp;Humidity;BMP_temperature;BMP_pressure;BME280_temperature;BME280_humidity;BME280_pressure;Samples;Min_cycle;Max_cycle;Signal;HPM_P1;HPM_P2
2023/05/17 00:08:59;;;;;;;0.65;0.10;;;;;;;17.94;61.59;95102.44;5026601;28;20052;-30
2023/05/17 00:24:52;;;;;;;0.77;0.15;;;;;;;17.99;61.01;95101.69;5035699;28;20029;-33
2023/05/17 00:37:53;;;;;;;0.25;0.10;;;;;;;17.99;60.92;95096.22;5035648;28;20040;-30
2023/05/17 00:40:19;;;;;;;0.50;0.15;;;;;;;17.75;61.71;95098.81;5035207;28;20022;-29
2023/05/17 00:52:59;;;;;;;0.10;0.10;;;;;;;18.01;60.84;95109.41;5035278;28;20036;-29
2023/05/17 01:08:51;;;;;;;0.10;0.10;;;;;;;17.79;60.87;95102.06;5028848;28;20095;-30
2023/05/17 01:11:47;;;;;;;0.20;0.10;;;;;;;17.84;60.84;95104.00;5034753;28;20037;-30
2023/05/17 01:24:50;;;;;;;0.20;0.20;;;;;;;17.57;61.32;95102.84;5034618;28;20040;-30
2023/05/17 01:54:11;;;;;;;1.85;0.10;;;;;;;17.63;61.10;95117.31;5033742;28;20117;-29
2023/05/17 02:10:04;;;;;;;0.38;0.30;;;;;;;17.77;60.02;95132.72;5026545;28;20079;-30
2023/05/17 02:25:56;;;;;;;0.20;0.20;;;;;;;17.78;60.08;95134.22;5033623;28;20146;-31
2023/05/17 02:39:16;;;;;;;0.70;0.35;;;;;;;17.59;60.75;95133.97;5033716;28;20424;-30
2023/05/17 02:55:09;;;;;;;0.30;0.10;;;;;;;17.69;60.46;95137.22;5032981;28;20048;-30
2023/05/17 03:11:27;;;;;;;0.10;0.10;;;;;;;17.70;60.23;95157.91;5026311;28;20048;-30
2023/05/17 03:24:47;;;;;;;0.30;0.10;;;;;;;17.48;61.25;95166.91;5032593;28;20040;-30
2023/05/17 03:40:40;;;;;;;0.40;0.13;;;;;;;17.55;61.22;95177.38;5035474;28;20132;-30
2023/05/17 03:56:32;;;;;;;0.30;0.10;;;;;;;17.64;60.22;95195.56;5036215;28;20076;-29
2023/05/17 04:26:16;;;;;;;0.63;0.25;;;;;;;17.44;61.02;95231.44;5035744;28;20041;-29
2023/05/17 04:42:09;;;;;;;0.32;0.20;;;;;;;17.52;60.81;95246.16;5035203;28;20032;-29
2023/05/17 05:11:28;;;;;;;1.17;0.25;;;;;;;17.54;60.56;95285.53;5029435;28;20056;-30
2023/05/17 05:27:21;;;;;;;2.65;0.82;;;;;;;17.52;61.05;95276.31;5034489;28;20044;-31
2023/05/17 05:43:14;;;;;;;0.20;0.20;;;;;;;17.76;60.56;95290.25;5034098;28;20110;-30
2023/05/17 05:56:32;;;;;;;0.47;0.25;;;;;;;17.71;60.94;95310.19;5034102;28;20056;-30
2023/05/17 06:12:24;;;;;;;0.30;0.30;;;;;;;17.83;61.39;95328.13;5027154;28;20048;-30
2023/05/17 06:14:49;;;;;;;0.63;0.28;;;;;;;17.70;61.70;95324.41;5034030;28;20049;-30
2023/05/17 06:27:20;;;;;;;0.10;0.10;;;;;;;17.79;61.80;95340.63;5033524;28;20092;-30
2023/05/17 06:43:12;;;;;;;2.75;0.20;;;;;;;17.86;62.62;95353.81;5033737;28;20086;-29
2023/05/17 06:59:04;;;;;;;5.00;1.27;;;;;;;17.86;62.57;95365.53;5032640;28;20048;-30
2023/05/17 07:12:19;;;;;;;1.38;0.60;;;;;;;17.86;62.30;95392.22;5043458;28;20029;-29
2023/05/17 07:29:02;;;;;;;0.40;0.20;;;;;;;17.59;63.49;95408.13;5037092;28;20431;-28
2023/05/17 07:58:21;;;;;;;1.52;0.20;;;;;;;17.76;63.72;95443.09;5043683;28;20488;-29
2023/05/17 08:14:15;;;;;;;0.82;0.50;;;;;;;18.04;62.87;95452.09;5028542;28;20107;-29
2023/05/17 08:30:07;;;;;;;2.30;0.32;;;;;;;18.02;62.40;95468.28;5035605;28;20091;-29
2023/05/17 08:43:22;;;;;;;1.08;0.40;;;;;;;17.98;63.15;95481.50;5035665;28;20044;-29
2023/05/17 08:59:14;;;;;;;1.38;0.57;;;;;;;17.76;63.39;95492.44;5034913;28;20420;-30
2023/05/17 09:15:16;;;;;;;2.47;0.50;;;;;;;17.93;62.51;95501.44;5028466;28;20520;-30
2023/05/17 09:17:42;;;;;;;0.65;0.40;;;;;;;17.95;62.43;95498.94;5043483;28;20055;-29
2023/05/17 09:30:13;;;;;;;1.13;0.40;;;;;;;17.80;63.13;95515.63;5034879;28;20444;-28
2023/05/17 09:46:06;;;;;;;0.68;0.55;;;;;;;18.07;62.76;95541.59;5036100;28;20060;-28
2023/05/17 09:59:17;;;;;;;2.58;0.30;;;;;;;18.19;62.50;95551.34;5034179;28;20373;-29
2023/05/17 10:15:11;;;;;;;1.38;0.60;;;;;;;18.14;62.62;95543.13;5027368;28;20103;-27
2023/05/17 10:31:04;;;;;;;0.88;0.40;;;;;;;18.52;62.68;95549.88;5033435;28;20104;-29
2023/05/17 11:00:29;;;;;;;0.77;0.43;;;;;;;18.69;60.32;95575.34;5033648;28;20113;-29
2023/05/17 11:16:36;;;;;;;1.10;0.50;;;;;;;18.55;60.48;95568.84;5026152;28;20049;-30
2023/05/17 11:32:31;;;;;;;1.08;0.30;;;;;;;18.85;60.34;95558.13;5032351;28;20461;-29
2023/05/17 11:45:26;;;;;;;0.43;0.20;;;;;;;18.83;59.97;95560.63;5032938;28;20087;-29
2023/05/17 12:01:18;;;;;;;1.45;1.02;;;;;;;18.79;60.89;95568.34;5034219;28;20087;-29
2023/05/17 12:17:15;;;;;;;1.65;0.90;;;;;;;18.78;60.49;95577.13;5028782;28;20047;-30
2023/05/17 12:33:08;;;;;;;0.63;0.40;;;;;;;18.61;60.69;95568.88;5039468;28;20056;-29
2023/05/17 12:46:13;;;;;;;0.40;0.30;;;;;;;18.80;60.53;95593.81;5035870;28;20091;-28
2023/05/17 13:02:06;;;;;;;2.42;0.60;;;;;;;18.60;62.77;95603.81;5035375;28;20386;-31
2023/05/17 13:17:59;;;;;;;3.53;1.55;;;;;;;18.33;65.28;95642.19;5027857;28;20100;-30
2023/05/17 13:33:51;;;;;;;2.85;0.80;;;;;;;18.43;64.87;95646.19;5037037;28;20056;-30
2023/05/17 13:46:53;;;;;;;2.17;0.45;;;;;;;18.44;64.86;95625.75;5034907;28;20385;-28
2023/05/17 14:02:45;;;;;;;1.58;1.00;;;;;;;18.10;67.06;95633.91;5033703;28;20028;-29
2023/05/17 14:18:37;;;;;;;1.73;0.60;;;;;;;18.43;65.56;95629.72;5026178;28;20111;-29
2023/05/17 14:34:29;;;;;;;4.22;2.47;;;;;;;18.56;66.15;95649.22;5033095;28;20087;-31
2023/05/17 14:47:31;;;;;;;0.88;0.73;;;;;;;18.43;67.22;95666.16;5033619;28;20045;-29
2023/05/17 15:03:50;;;;;;;2.75;0.75;;;;;;;18.37;66.80;95681.16;5039170;28;20079;-29
2023/05/17 15:19:42;;;;;;;3.40;0.90;;;;;;;18.30;67.30;95687.84;5027006;28;20507;-29
2023/05/17 15:32:59;;;;;;;2.88;1.15;;;;;;;18.37;66.51;95700.34;5033034;28;20029;-29
2023/05/17 15:48:55;;;;;;;4.82;1.80;;;;;;;18.35;66.44;95722.06;5036165;28;20125;-29
2023/05/17 16:04:47;;;;;;;4.80;2.60;;;;;;;18.41;65.67;95736.56;5036496;28;20557;-29
2023/05/17 16:34:32;;;;;;;1.52;1.30;;;;;;;18.30;64.95;95765.47;5035331;28;20389;-29
2023/05/17 16:50:25;;;;;;;1.45;0.98;;;;;;;18.40;64.25;95796.22;5035094;28;20052;-29
2023/05/17 17:19:44;;;;;;;2.50;1.70;;;;;;;18.38;63.11;95831.63;5035820;28;20052;-29
2023/05/17 17:35:37;;;;;;;1.52;0.70;;;;;;;18.30;63.34;95831.34;5034408;28;20541;-29
2023/05/17 17:51:30;;;;;;;2.85;0.60;;;;;;;18.40;62.46;95850.38;5034354;28;20458;-29
2023/05/17 18:04:47;;;;;;;3.83;0.80;;;;;;;18.45;61.98;95855.13;5033975;28;20037;-30
2023/05/17 18:20:40;;;;;;;2.45;1.00;;;;;;;18.43;61.95;95876.81;5027296;28;20055;-30
2023/05/17 18:36:33;;;;;;;1.75;1.10;;;;;;;18.33;61.75;95900.22;5033623;28;20499;-30
2023/05/17 19:05:53;;;;;;;4.00;2.50;;;;;;;18.40;60.98;95932.72;5033297;28;20032;-29
2023/05/17 19:21:45;;;;;;;2.22;1.00;;;;;;;18.41;60.76;95956.19;5036630;28;20092;-29
2023/05/17 19:37:37;;;;;;;1.20;0.95;;;;;;;18.27;61.02;95980.56;5036165;28;20044;-29
2023/05/17 19:51:01;;;;;;;1.90;0.90;;;;;;;18.21;60.71;95993.47;5036732;28;20044;-29
2023/05/17 20:06:53;;;;;;;1.00;0.65;;;;;;;18.04;61.27;96022.78;5036259;28;20041;-31
2023/05/17 20:22:47;;;;;;;1.83;0.50;;;;;;;18.27;59.97;96029.22;5035496;28;20449;-29
2023/05/17 20:38:41;;;;;;;1.33;1.02;;;;;;;18.25;60.24;96051.66;5035658;28;20069;-28
2023/05/17 20:51:45;;;;;;;1.33;0.85;;;;;;;18.24;60.24;96054.88;5035586;28;20032;-29
2023/05/17 21:07:38;;;;;;;0.80;0.32;;;;;;;18.26;60.01;96055.16;5038713;28;20090;-29
2023/05/17 21:23:30;;;;;;;1.23;0.63;;;;;;;18.11;59.86;96057.25;5027084;28;20076;-29
2023/05/17 21:39:22;;;;;;;1.17;0.77;;;;;;;18.28;59.06;96056.19;5034967;28;20106;-31
2023/05/17 21:52:30;;;;;;;0.50;0.30;;;;;;;18.20;58.94;96062.56;5034763;28;20551;-29
2023/05/17 21:54:55;;;;;;;3.35;0.40;;;;;;;18.14;58.91;96065.28;5033902;28;20040;-29
2023/05/17 22:07:42;;;;;;;0.30;0.25;;;;;;;18.02;58.92;96074.66;5033646;28;20072;-29
2023/05/17 22:23:35;;;;;;;0.40;0.30;;;;;;;17.88;59.13;96075.50;5026499;28;20060;-29
2023/05/17 22:39:27;;;;;;;2.05;0.30;;;;;;;17.94;58.48;96074.31;5033620;28;20067;-29
2023/05/17 22:55:20;;;;;;;0.73;0.32;;;;;;;17.93;58.45;96050.84;5040720;28;20064;-29
2023/05/17 23:08:22;;;;;;;0.60;0.30;;;;;;;18.00;58.04;96052.41;5040788;28;20032;-30
2023/05/17 23:24:14;;;;;;;0.25;0.25;;;;;;;17.91;57.79;96056.09;5026775;28;20048;-31
2023/05/17 23:26:40;;;;;;;0.85;0.30;;;;;;;17.94;57.80;96059.81;5032941;28;20034;-29
2023/05/17 23:39:10;;;;;;;1.10;0.30;;;;;;;17.88;57.43;96054.31;5033334;28;20037;-29
2023/05/17 23:55:02;;;;;;;1.92;0.30;;;;;;;18.03;57.54;96054.19;5034028;28;20099;-30
